sensor_id;sensor_type;location;lat;lon;timestamp;pressure;altitude;pressure_sealevel;temperature;humidity
23339;BME280;11841;49.368;20.962;2023-04-03T00:02:22;95708.19;;;2.84;94.89
23339;BME280;11841;49.368;20.962;2023-04-03T00:04:49;95706.41;;;2.85;95.50
23339;BME280;11841;49.368;20.962;2023-04-03T00:07:15;95705.88;;;2.89;94.72
23339;BME280;11841;49.368;20.962;2023-04-03T00:09:42;95702.81;;;2.78;94.86
23339;BME280;11841;49.368;20.962;2023-04-03T00:12:08;95695.63;;;2.72;95.89
23339;BME280;11841;49.368;20.962;2023-04-03T00:14:35;95702.66;;;2.79;95.62
23339;BME280;11841;49.368;20.962;2023-04-03T00:17:01;95700.38;;;2.76;95.10
23339;BME280;11841;49.368;20.962;2023-04-03T00:19:28;95704.97;;;2.74;95.51
23339;BME280;11841;49.368;20.962;2023-04-03T00:21:54;95690.56;;;2.70;94.99
23339;BME280;11841;49.368;20.962;2023-04-03T00:24:21;95698.25;;;2.72;94.84
23339;BME280;11841;49.368;20.962;2023-04-03T00:26:47;95698.25;;;2.80;94.50
23339;BME280;11841;49.368;20.962;2023-04-03T00:29:14;95698.25;;;2.80;94.46
23339;BME280;11841;49.368;20.962;2023-04-03T00:31:40;95702.16;;;2.76;94.33
23339;BME280;11841;49.368;20.962;2023-04-03T00:34:07;95693.66;;;2.74;94.90
23339;BME280;11841;49.368;20.962;2023-04-03T00:36:33;95696.94;;;2.76;95.17
23339;BME280;11841;49.368;20.962;2023-04-03T00:39:00;95695.31;;;2.75;94.98
23339;BME280;11841;49.368;20.962;2023-04-03T00:41:27;95697.72;;;2.84;94.30
23339;BME280;11841;49.368;20.962;2023-04-03T00:43:53;95701.34;;;2.83;94.28
23339;BME280;11841;49.368;20.962;2023-04-03T00:46:20;95698.06;;;2.81;94.42
23339;BME280;11841;49.368;20.962;2023-04-03T00:48:47;95696.91;;;2.84;94.02
23339;BME280;11841;49.368;20.962;2023-04-03T00:51:18;95700.38;;;2.76;94.26
23339;BME280;11841;49.368;20.962;2023-04-03T00:53:47;95690.69;;;2.85;94.77
23339;BME280;11841;49.368;20.962;2023-04-03T00:56:16;95697.50;;;2.94;94.38
23339;BME280;11841;49.368;20.962;2023-04-03T00:58:48;95697.81;;;2.99;93.76
23339;BME280;11841;49.368;20.962;2023-04-03T01:01:18;95708.59;;;3.04;93.88
23339;BME280;11841;49.368;20.962;2023-04-03T01:03:46;95714.19;;;3.01;93.72
23339;BME280;11841;49.368;20.962;2023-04-03T01:06:13;95709.63;;;2.95;94.00
23339;BME280;11841;49.368;20.962;2023-04-03T01:08:42;95717.78;;;2.61;94.02
23339;BME280;11841;49.368;20.962;2023-04-03T01:11:09;95715.16;;;2.53;95.21
23339;BME280;11841;49.368;20.962;2023-04-03T01:13:36;95712.06;;;2.41;95.06
23339;BME280;11841;49.368;20.962;2023-04-03T01:16:03;95711.44;;;2.47;95.94
23339;BME280;11841;49.368;20.962;2023-04-03T01:18:31;95706.47;;;2.61;95.64
23339;BME280;11841;49.368;20.962;2023-04-03T01:21:05;95713.03;;;2.65;95.05
23339;BME280;11841;49.368;20.962;2023-04-03T01:23:43;95715.47;;;2.58;94.36
23339;BME280;11841;49.368;20.962;2023-04-03T01:26:12;95712.22;;;2.48;94.89
23339;BME280;11841;49.368;20.962;2023-04-03T01:28:39;95709.78;;;2.46;95.06
23339;BME280;11841;49.368;20.962;2023-04-03T01:33:42;95713.03;;;2.48;95.89
23339;BME280;11841;49.368;20.962;2023-04-03T01:36:13;95712.84;;;2.58;95.34
23339;BME280;11841;49.368;20.962;2023-04-03T01:38:40;95715.63;;;2.57;95.82
23339;BME280;11841;49.368;20.962;2023-04-03T01:41:06;95715.31;;;2.60;95.66
23339;BME280;11841;49.368;20.962;2023-04-03T01:43:33;95719.88;;;2.66;95.38
23339;BME280;11841;49.368;20.962;2023-04-03T01:45:59;95721.31;;;2.76;94.80
23339;BME280;11841;49.368;20.962;2023-04-03T01:48:26;95722.13;;;2.77;94.36
23339;BME280;11841;49.368;20.962;2023-04-03T01:50:53;95728.38;;;2.68;94.12
23339;BME280;11841;49.368;20.962;2023-04-03T01:53:19;95724.13;;;2.67;94.43
23339;BME280;11841;49.368;20.962;2023-04-03T01:55:46;95726.09;;;2.65;94.85
23339;BME280;11841;49.368;20.962;2023-04-03T01:58:13;95742.50;;;2.51;94.75
23339;BME280;11841;49.368;20.962;2023-04-03T02:00:39;95734.97;;;2.39;95.14
23339;BME280;11841;49.368;20.962;2023-04-03T02:03:06;95728.28;;;2.37;95.19
23339;BME280;11841;49.368;20.962;2023-04-03T02:05:33;95725.81;;;2.43;95.18
23339;BME280;11841;49.368;20.962;2023-04-03T02:07:59;95728.44;;;2.35;94.78
23339;BME280;11841;49.368;20.962;2023-04-03T02:10:26;95733.19;;;2.32;94.61
23339;BME280;11841;49.368;20.962;2023-04-03T02:12:53;95737.13;;;2.28;94.34
23339;BME280;11841;49.368;20.962;2023-04-03T02:15:19;95741.53;;;2.19;94.34
23339;BME280;11841;49.368;20.962;2023-04-03T02:17:46;95745.13;;;2.26;94.46
23339;BME280;11841;49.368;20.962;2023-04-03T02:20:12;95742.50;;;2.34;93.86
23339;BME280;11841;49.368;20.962;2023-04-03T02:22:39;95752.31;;;2.32;93.48
23339;BME280;11841;49.368;20.962;2023-04-03T02:25:05;95745.47;;;2.23;94.42
23339;BME280;11841;49.368;20.962;2023-04-03T02:27:32;95748.06;;;2.31;94.68
23339;BME280;11841;49.368;20.962;2023-04-03T02:29:58;95741.69;;;2.26;94.43
23339;BME280;11841;49.368;20.962;2023-04-03T02:32:25;95748.41;;;2.28;94.38
23339;BME280;11841;49.368;20.962;2023-04-03T02:34:52;95748.06;;;2.31;94.29
23339;BME280;11841;49.368;20.962;2023-04-03T02:37:18;95752.66;;;2.13;93.58
23339;BME280;11841;49.368;20.962;2023-04-03T02:39:45;95742.53;;;2.10;93.69
23339;BME280;11841;49.368;20.962;2023-04-03T02:42:11;95755.59;;;2.18;93.59
23339;BME280;11841;49.368;20.962;2023-04-03T02:44:38;95752.66;;;2.21;93.87
23339;BME280;11841;49.368;20.962;2023-04-03T02:47:05;95752.50;;;2.23;93.24
23339;BME280;11841;49.368;20.962;2023-04-03T02:49:31;95758.22;;;2.18;94.06
23339;BME280;11841;49.368;20.962;2023-04-03T02:51:58;95761.50;;;2.20;93.70
23339;BME280;11841;49.368;20.962;2023-04-03T02:54:24;95758.88;;;2.20;94.01
23339;BME280;11841;49.368;20.962;2023-04-03T02:56:54;95767.38;;;2.14;93.74
23339;BME280;11841;49.368;20.962;2023-04-03T02:59:20;95774.56;;;2.12;93.57
23339;BME280;11841;49.368;20.962;2023-04-03T03:01:47;95769.66;;;2.09;93.22
23339;BME280;11841;49.368;20.962;2023-04-03T03:04:13;95767.53;;;2.05;92.94
23339;BME280;11841;49.368;20.962;2023-04-03T03:06:40;95768.19;;;1.99;93.05
23339;BME280;11841;49.368;20.962;2023-04-03T03:09:10;95773.91;;;2.02;93.54
23339;BME280;11841;49.368;20.962;2023-04-03T03:11:36;95778.78;;;2.05;93.08
23339;BME280;11841;49.368;20.962;2023-04-03T03:14:02;95771.59;;;2.07;93.41
23339;BME280;11841;49.368;20.962;2023-04-03T03:16:29;95776.19;;;2.05;93.36
23339;BME280;11841;49.368;20.962;2023-04-03T03:18:56;95769.00;;;1.99;92.70
23339;BME280;11841;49.368;20.962;2023-04-03T03:21:24;95776.50;;;2.02;92.37
23339;BME280;11841;49.368;20.962;2023-04-03T03:23:50;95778.47;;;2.00;91.93
23339;BME280;11841;49.368;20.962;2023-04-03T03:26:17;95784.34;;;1.94;92.54
23339;BME280;11841;49.368;20.962;2023-04-03T03:28:43;95785.34;;;1.93;92.37
23339;BME280;11841;49.368;20.962;2023-04-03T03:31:10;95786.94;;;1.78;91.82
23339;BME280;11841;49.368;20.962;2023-04-03T03:33:36;95780.59;;;1.81;91.88
23339;BME280;11841;49.368;20.962;2023-04-03T03:36:03;95777.81;;;1.82;91.57
23339;BME280;11841;49.368;20.962;2023-04-03T03:38:29;95778.31;;;1.78;92.11
23339;BME280;11841;49.368;20.962;2023-04-03T03:40:56;95771.25;;;1.78;92.46
23339;BME280;11841;49.368;20.962;2023-04-03T03:43:23;95766.22;;;1.85;92.81
23339;BME280;11841;49.368;20.962;2023-04-03T03:45:50;95774.56;;;1.96;92.61
23339;BME280;11841;49.368;20.962;2023-04-03T03:48:17;95780.91;;;1.94;92.24
23339;BME280;11841;49.368;20.962;2023-04-03T03:50:43;95775.38;;;1.97;92.30
23339;BME280;11841;49.368;20.962;2023-04-03T03:53:10;95776.84;;;2.07;92.05
23339;BME280;11841;49.368;20.962;2023-04-03T03:55:37;95782.41;;;2.04;91.34
23339;BME280;11841;49.368;20.962;2023-04-03T03:58:04;95790.91;;;2.06;91.83
23339;BME280;11841;49.368;20.962;2023-04-03T04:00:30;95789.44;;;2.12;92.09
23339;BME280;11841;49.368;20.962;2023-04-03T04:02:57;95780.44;;;2.14;92.00
23339;BME280;11841;49.368;20.962;2023-04-03T04:05:24;95788.13;;;2.16;91.79
23339;BME280;11841;49.368;20.962;2023-04-03T04:07:51;95800.25;;;2.17;91.71
23339;BME280;11841;49.368;20.962;2023-04-03T04:10:18;95795.81;;;2.09;91.53
23339;BME280;11841;49.368;20.962;2023-04-03T04:12:44;95795.47;;;1.96;90.24
23339;BME280;11841;49.368;20.962;2023-04-03T04:15:11;95787.63;;;1.88;90.45
23339;BME280;11841;49.368;20.962;2023-04-03T04:17:37;95786.81;;;1.88;90.44
23339;BME280;11841;49.368;20.962;2023-04-03T04:20:04;95797.72;;;1.83;91.04
23339;BME280;11841;49.368;20.962;2023-04-03T04:22:31;95802.50;;;1.80;90.57
23339;BME280;11841;49.368;20.962;2023-04-03T04:24:57;95804.28;;;1.71;90.20
23339;BME280;11841;49.368;20.962;2023-04-03T04:27:24;95799.03;;;1.71;90.01
23339;BME280;11841;49.368;20.962;2023-04-03T04:29:50;95798.72;;;1.66;90.36
23339;BME280;11841;49.368;20.962;2023-04-03T04:32:17;95784.31;;;1.70;90.81
23339;BME280;11841;49.368;20.962;2023-04-03T04:34:43;95790.88;;;1.74;90.82
23339;BME280;11841;49.368;20.962;2023-04-03T04:37:10;95801.66;;;1.71;90.24
23339;BME280;11841;49.368;20.962;2023-04-03T04:39:36;95805.22;;;1.70;90.64
23339;BME280;11841;49.368;20.962;2023-04-03T04:42:03;95793.94;;;1.62;90.27
23339;BME280;11841;49.368;20.962;2023-04-03T04:44:29;95793.75;;;1.55;90.51
23339;BME280;11841;49.368;20.962;2023-04-03T04:46:56;95802.53;;;1.46;90.35
23339;BME280;11841;49.368;20.962;2023-04-03T04:49:22;95786.56;;;1.49;90.64
23339;BME280;11841;49.368;20.962;2023-04-03T04:51:49;95799.00;;;1.55;91.41
23339;BME280;11841;49.368;20.962;2023-04-03T04:54:17;95800.66;;;1.64;91.71
23339;BME280;11841;49.368;20.962;2023-04-03T04:56:44;95803.44;;;1.71;91.29
23339;BME280;11841;49.368;20.962;2023-04-03T04:59:11;95802.97;;;1.83;91.30
23339;BME280;11841;49.368;20.962;2023-04-03T05:01:37;95807.88;;;1.94;91.27
23339;BME280;11841;49.368;20.962;2023-04-03T05:04:04;95817.34;;;1.87;90.12
23339;BME280;11841;49.368;20.962;2023-04-03T05:06:31;95818.00;;;1.81;90.70
23339;BME280;11841;49.368;20.962;2023-04-03T05:08:58;95815.41;;;1.89;90.67
23339;BME280;11841;49.368;20.962;2023-04-03T05:11:25;95827.81;;;1.87;90.63
23339;BME280;11841;49.368;20.962;2023-04-03T05:13:51;95819.81;;;1.89;90.70
23339;BME280;11841;49.368;20.962;2023-04-03T05:16:18;95819.63;;;1.82;90.48
23339;BME280;11841;49.368;20.962;2023-04-03T05:18:45;95824.84;;;1.82;91.07
23339;BME280;11841;49.368;20.962;2023-04-03T05:21:11;95821.59;;;1.80;91.27
23339;BME280;11841;49.368;20.962;2023-04-03T05:23:38;95816.34;;;1.80;91.29
23339;BME280;11841;49.368;20.962;2023-04-03T05:26:04;95817.63;;;1.68;91.64
23339;BME280;11841;49.368;20.962;2023-04-03T05:28:31;95820.44;;;1.75;92.05
23339;BME280;11841;49.368;20.962;2023-04-03T05:30:58;95827.13;;;1.77;91.55
23339;BME280;11841;49.368;20.962;2023-04-03T05:33:25;95829.41;;;1.64;90.82
23339;BME280;11841;49.368;20.962;2023-04-03T05:35:52;95830.19;;;1.65;91.46
23339;BME280;11841;49.368;20.962;2023-04-03T05:38:19;95826.59;;;1.58;91.48
23339;BME280;11841;49.368;20.962;2023-04-03T05:40:46;95831.00;;;1.57;91.50
23339;BME280;11841;49.368;20.962;2023-04-03T05:43:13;95824.13;;;1.56;91.46
23339;BME280;11841;49.368;20.962;2023-04-03T05:45:39;95825.13;;;1.63;91.79
23339;BME280;11841;49.368;20.962;2023-04-03T05:48:06;95825.28;;;1.62;91.83
23339;BME280;11841;49.368;20.962;2023-04-03T05:50:33;95826.09;;;1.54;91.52
23339;BME280;11841;49.368;20.962;2023-04-03T05:52:59;95826.03;;;1.38;92.29
23339;BME280;11841;49.368;20.962;2023-04-03T05:55:28;95835.97;;;1.35;92.46
23339;BME280;11841;49.368;20.962;2023-04-03T05:57:54;95829.81;;;1.44;92.85
23339;BME280;11841;49.368;20.962;2023-04-03T06:00:21;95849.06;;;1.43;92.63
23339;BME280;11841;49.368;20.962;2023-04-03T06:02:47;95828.22;;;1.51;92.37
23339;BME280;11841;49.368;20.962;2023-04-03T06:05:14;95846.03;;;1.63;92.52
23339;BME280;11841;49.368;20.962;2023-04-03T06:07:41;95856.50;;;1.63;91.87
23339;BME280;11841;49.368;20.962;2023-04-03T06:10:07;95872.28;;;1.46;90.46
23339;BME280;11841;49.368;20.962;2023-04-03T06:12:35;95870.47;;;1.46;90.46
23339;BME280;11841;49.368;20.962;2023-04-03T06:15:02;95874.03;;;1.37;89.36
23339;BME280;11841;49.368;20.962;2023-04-03T06:17:28;95886.19;;;1.20;88.18
23339;BME280;11841;49.368;20.962;2023-04-03T06:19:55;95872.78;;;1.15;88.55
23339;BME280;11841;49.368;20.962;2023-04-03T06:22:24;95873.91;;;1.13;87.94
23339;BME280;11841;49.368;20.962;2023-04-03T06:24:51;95868.72;;;1.21;89.17
23339;BME280;11841;49.368;20.962;2023-04-03T06:27:18;95873.28;;;1.19;88.59
23339;BME280;11841;49.368;20.962;2023-04-03T06:29:44;95868.53;;;1.14;88.81
23339;BME280;11841;49.368;20.962;2023-04-03T06:32:11;95866.75;;;1.15;89.15
23339;BME280;11841;49.368;20.962;2023-04-03T06:34:38;95871.47;;;1.11;89.33
23339;BME280;11841;49.368;20.962;2023-04-03T06:37:04;95875.91;;;1.19;89.77
23339;BME280;11841;49.368;20.962;2023-04-03T06:39:31;95882.31;;;1.24;90.13
23339;BME280;11841;49.368;20.962;2023-04-03T06:41:57;95874.31;;;1.26;89.58
23339;BME280;11841;49.368;20.962;2023-04-03T06:44:24;95876.88;;;1.18;89.89
23339;BME280;11841;49.368;20.962;2023-04-03T06:46:50;95877.88;;;1.17;90.78
23339;BME280;11841;49.368;20.962;2023-04-03T06:49:18;95880.97;;;1.20;90.85
23339;BME280;11841;49.368;20.962;2023-04-03T06:51:44;95886.69;;;1.24;91.33
23339;BME280;11841;49.368;20.962;2023-04-03T06:54:12;95904.91;;;1.08;90.24
23339;BME280;11841;49.368;20.962;2023-04-03T06:56:39;95899.31;;;1.03;89.51
23339;BME280;11841;49.368;20.962;2023-04-03T06:59:05;95899.28;;;0.95;88.82
23339;BME280;11841;49.368;20.962;2023-04-03T07:01:32;95890.31;;;0.97;89.06
23339;BME280;11841;49.368;20.962;2023-04-03T07:03:59;95886.59;;;1.00;88.68
23339;BME280;11841;49.368;20.962;2023-04-03T07:06:25;95895.72;;;1.04;89.01
23339;BME280;11841;49.368;20.962;2023-04-03T07:08:54;95894.63;;;1.06;89.41
23339;BME280;11841;49.368;20.962;2023-04-03T07:11:21;95893.47;;;1.09;90.02
23339;BME280;11841;49.368;20.962;2023-04-03T07:13:48;95904.59;;;1.11;90.65
23339;BME280;11841;49.368;20.962;2023-04-03T07:16:15;95899.69;;;1.08;90.79
23339;BME280;11841;49.368;20.962;2023-04-03T07:18:41;95903.91;;;1.09;91.76
23339;BME280;11841;49.368;20.962;2023-04-03T07:21:08;95906.84;;;1.06;91.35
23339;BME280;11841;49.368;20.962;2023-04-03T07:23:34;95910.88;;;1.00;90.75
23339;BME280;11841;49.368;20.962;2023-04-03T07:26:01;95918.53;;;1.02;91.67
23339;BME280;11841;49.368;20.962;2023-04-03T07:28:28;95912.69;;;1.00;91.35
23339;BME280;11841;49.368;20.962;2023-04-03T07:31:02;95915.34;;;1.08;91.88
23339;BME280;11841;49.368;20.962;2023-04-03T07:33:29;95918.81;;;1.16;92.46
23339;BME280;11841;49.368;20.962;2023-04-03T07:35:56;95917.75;;;1.27;91.72
23339;BME280;11841;49.368;20.962;2023-04-03T07:38:22;95928.72;;;1.31;91.66
23339;BME280;11841;49.368;20.962;2023-04-03T07:40:50;95939.94;;;1.31;91.07
23339;BME280;11841;49.368;20.962;2023-04-03T07:43:17;95933.66;;;1.16;90.26
23339;BME280;11841;49.368;20.962;2023-04-03T07:45:44;95937.00;;;1.26;91.06
23339;BME280;11841;49.368;20.962;2023-04-03T07:48:11;95931.44;;;1.29;91.26
23339;BME280;11841;49.368;20.962;2023-04-03T07:50:39;95933.13;;;1.38;90.92
23339;BME280;11841;49.368;20.962;2023-04-03T07:53:05;95938.38;;;1.38;90.55
23339;BME280;11841;49.368;20.962;2023-04-03T07:55:32;95942.91;;;1.36;91.22
23339;BME280;11841;49.368;20.962;2023-04-03T07:58:00;95947.13;;;1.29;90.33
23339;BME280;11841;49.368;20.962;2023-04-03T08:00:26;95949.69;;;1.21;90.00
23339;BME280;11841;49.368;20.962;2023-04-03T08:02:53;95951.34;;;1.22;90.43
23339;BME280;11841;49.368;20.962;2023-04-03T08:05:20;95938.41;;;1.20;89.85
23339;BME280;11841;49.368;20.962;2023-04-03T08:07:47;95945.50;;;1.28;90.09
23339;BME280;11841;49.368;20.962;2023-04-03T08:10:14;95939.25;;;1.21;89.70
23339;BME280;11841;49.368;20.962;2023-04-03T08:12:40;95944.47;;;1.21;89.88
23339;BME280;11841;49.368;20.962;2023-04-03T08:15:07;95955.53;;;1.15;89.13
23339;BME280;11841;49.368;20.962;2023-04-03T08:17:34;95960.44;;;1.18;89.30
23339;BME280;11841;49.368;20.962;2023-04-03T08:20:02;95953.28;;;1.20;88.96
23339;BME280;11841;49.368;20.962;2023-04-03T08:22:29;95949.38;;;1.24;89.14
23339;BME280;11841;49.368;20.962;2023-04-03T08:24:55;95951.38;;;1.30;89.56
23339;BME280;11841;49.368;20.962;2023-04-03T08:27:25;95953.84;;;1.32;89.15
23339;BME280;11841;49.368;20.962;2023-04-03T08:29:53;95955.97;;;1.36;89.10
23339;BME280;11841;49.368;20.962;2023-04-03T08:32:20;95958.31;;;1.39;88.60
23339;BME280;11841;49.368;20.962;2023-04-03T08:34:46;95961.41;;;1.43;89.25
23339;BME280;11841;49.368;20.962;2023-04-03T08:37:13;95962.06;;;1.45;89.05
23339;BME280;11841;49.368;20.962;2023-04-03T08:39:39;95972.94;;;1.32;88.39
23339;BME280;11841;49.368;20.962;2023-04-03T08:42:12;95974.91;;;1.30;89.41
23339;BME280;11841;49.368;20.962;2023-04-03T08:49:48;95993.72;;;1.16;86.57
23339;BME280;11841;49.368;20.962;2023-04-03T08:52:18;95981.44;;;1.08;87.08
23339;BME280;11841;49.368;20.962;2023-04-03T08:54:55;95985.22;;;1.14;87.72
23339;BME280;11841;49.368;20.962;2023-04-03T08:57:26;95982.56;;;1.06;87.97
23339;BME280;11841;49.368;20.962;2023-04-03T08:59:54;95979.19;;;1.13;88.73
23339;BME280;11841;49.368;20.962;2023-04-03T09:02:27;95998.06;;;1.07;88.45
23339;BME280;11841;49.368;20.962;2023-04-03T09:04:55;95991.28;;;0.97;88.13
23339;BME280;11841;49.368;20.962;2023-04-03T09:07:39;96009.19;;;0.92;87.71
23339;BME280;11841;49.368;20.962;2023-04-03T09:10:09;95995.34;;;0.91;88.33
23339;BME280;11841;49.368;20.962;2023-04-03T09:12:38;95996.09;;;0.84;87.10
23339;BME280;11841;49.368;20.962;2023-04-03T09:17:42;95980.72;;;0.98;87.66
23339;BME280;11841;49.368;20.962;2023-04-03T09:20:26;95996.13;;;0.92;88.42
23339;BME280;11841;49.368;20.962;2023-04-03T09:22:57;95995.72;;;0.79;89.96
23339;BME280;11841;49.368;20.962;2023-04-03T09:25:27;95999.94;;;0.80;89.93
23339;BME280;11841;49.368;20.962;2023-04-03T09:27:59;96012.72;;;0.83;89.00
23339;BME280;11841;49.368;20.962;2023-04-03T09:30:26;96006.75;;;0.73;88.12
23339;BME280;11841;49.368;20.962;2023-04-03T09:32:54;96017.72;;;0.76;88.50
23339;BME280;11841;49.368;20.962;2023-04-03T09:35:28;96017.06;;;0.74;88.18
23339;BME280;11841;49.368;20.962;2023-04-03T09:40:40;96016.53;;;0.71;88.49
23339;BME280;11841;49.368;20.962;2023-04-03T09:45:52;96034.72;;;0.80;87.37
23339;BME280;11841;49.368;20.962;2023-04-03T09:48:20;96025.56;;;0.76;87.71
23339;BME280;11841;49.368;20.962;2023-04-03T09:56:04;96047.88;;;0.44;84.84
23339;BME280;11841;49.368;20.962;2023-04-03T09:58:33;96049.66;;;0.43;85.71
23339;BME280;11841;49.368;20.962;2023-04-03T10:01:34;96050.91;;;0.39;85.15
23339;BME280;11841;49.368;20.962;2023-04-03T10:04:03;96065.22;;;0.35;85.32
23339;BME280;11841;49.368;20.962;2023-04-03T10:06:31;96077.75;;;0.32;85.29
23339;BME280;11841;49.368;20.962;2023-04-03T10:08:59;96066.31;;;0.33;86.24
23339;BME280;11841;49.368;20.962;2023-04-03T10:11:27;96071.16;;;0.28;86.11
23339;BME280;11841;49.368;20.962;2023-04-03T10:13:54;96072.38;;;0.33;87.39
23339;BME280;11841;49.368;20.962;2023-04-03T10:16:24;96069.06;;;0.41;88.05
23339;BME280;11841;49.368;20.962;2023-04-03T10:19:01;96075.22;;;0.40;88.68
23339;BME280;11841;49.368;20.962;2023-04-03T10:21:32;96068.38;;;0.39;89.15
23339;BME280;11841;49.368;20.962;2023-04-03T10:34:06;96072.69;;;0.48;89.29
23339;BME280;11841;49.368;20.962;2023-04-03T10:36:45;96076.88;;;0.41;88.52
23339;BME280;11841;49.368;20.962;2023-04-03T10:39:18;96082.28;;;0.30;88.73
23339;BME280;11841;49.368;20.962;2023-04-03T10:47:11;96082.28;;;0.30;86.38
23339;BME280;11841;49.368;20.962;2023-04-03T10:57:39;96099.44;;;0.32;85.19
23339;BME280;11841;49.368;20.962;2023-04-03T11:00:13;96110.03;;;0.21;84.97
23339;BME280;11841;49.368;20.962;2023-04-03T11:02:54;96118.69;;;0.22;84.24
23339;BME280;11841;49.368;20.962;2023-04-03T11:08:43;96110.88;;;0.22;84.11
23339;BME280;11841;49.368;20.962;2023-04-03T11:16:37;96095.38;;;0.47;88.32
23339;BME280;11841;49.368;20.962;2023-04-03T11:19:24;96106.41;;;0.59;87.67
23339;BME280;11841;49.368;20.962;2023-04-03T11:21:56;96103.13;;;0.57;86.58
23339;BME280;11841;49.368;20.962;2023-04-03T11:24:27;96095.38;;;0.47;86.81
23339;BME280;11841;49.368;20.962;2023-04-03T11:26:57;96098.25;;;0.44;86.86
23339;BME280;11841;49.368;20.962;2023-04-03T11:29:26;96101.69;;;0.45;87.50
23339;BME280;11841;49.368;20.962;2023-04-03T11:32:02;96098.13;;;0.46;87.20
23339;BME280;11841;49.368;20.962;2023-04-03T11:37:00;96096.09;;;0.40;89.45
23339;BME280;11841;49.368;20.962;2023-04-03T11:39:34;96098.69;;;0.40;90.67
23339;BME280;11841;49.368;20.962;2023-04-03T11:44:43;96120.56;;;0.29;90.71
23339;BME280;11841;49.368;20.962;2023-04-03T11:47:10;96118.09;;;0.28;89.87
23339;BME280;11841;49.368;20.962;2023-04-03T11:55:02;96104.66;;;0.23;86.55
23339;BME280;11841;49.368;20.962;2023-04-03T11:57:44;96123.53;;;0.44;87.99
23339;BME280;11841;49.368;20.962;2023-04-03T12:16:29;96127.59;;;0.29;84.33
23339;BME280;11841;49.368;20.962;2023-04-03T12:39:55;96137.13;;;0.38;85.19
23339;BME280;11841;49.368;20.962;2023-04-03T12:45:08;96135.56;;;0.27;84.77
23339;BME280;11841;49.368;20.962;2023-04-03T12:47:40;96136.06;;;0.31;85.70
23339;BME280;11841;49.368;20.962;2023-04-03T12:53:39;96140.19;;;0.33;84.83
23339;BME280;11841;49.368;20.962;2023-04-03T12:55:40;96149.63;;;0.44;85.39
23339;BME280;11841;49.368;20.962;2023-04-03T12:58:17;96140.66;;;0.46;83.58
23339;BME280;11841;49.368;20.962;2023-04-03T13:00:47;96140.41;;;0.49;85.28
23339;BME280;11841;49.368;20.962;2023-04-03T13:03:24;96139.81;;;0.55;84.08
23339;BME280;11841;49.368;20.962;2023-04-03T13:05:57;96138.97;;;0.55;82.61
23339;BME280;11841;49.368;20.962;2023-04-03T13:08:25;96142.56;;;0.54;82.04
23339;BME280;11841;49.368;20.962;2023-04-03T13:11:00;96132.88;;;0.64;82.61
23339;BME280;11841;49.368;20.962;2023-04-03T13:13:27;96126.66;;;0.74;82.29
23339;BME280;11841;49.368;20.962;2023-04-03T13:15:54;96132.03;;;0.73;82.68
23339;BME280;11841;49.368;20.962;2023-04-03T13:18:32;96118.81;;;0.74;82.10
23339;BME280;11841;49.368;20.962;2023-04-03T13:21:01;96117.41;;;0.80;82.03
23339;BME280;11841;49.368;20.962;2023-04-03T13:23:29;96125.22;;;0.80;82.34
23339;BME280;11841;49.368;20.962;2023-04-03T13:25:57;96123.22;;;0.74;81.91
23339;BME280;11841;49.368;20.962;2023-04-03T13:28:30;96121.47;;;0.65;81.77
23339;BME280;11841;49.368;20.962;2023-04-03T13:31:08;96122.75;;;0.61;82.19
23339;BME280;11841;49.368;20.962;2023-04-03T13:33:37;96118.88;;;0.65;83.23
23339;BME280;11841;49.368;20.962;2023-04-03T13:38:31;96126.22;;;0.52;82.52
23339;BME280;11841;49.368;20.962;2023-04-03T13:41:00;96127.06;;;0.52;83.66
23339;BME280;11841;49.368;20.962;2023-04-03T13:43:46;96125.53;;;0.50;83.72
23339;BME280;11841;49.368;20.962;2023-04-03T13:48:40;96144.47;;;0.52;83.66
23339;BME280;11841;49.368;20.962;2023-04-03T13:53:48;96124.38;;;0.35;84.40
23339;BME280;11841;49.368;20.962;2023-04-03T13:56:18;96126.69;;;0.38;84.67
23339;BME280;11841;49.368;20.962;2023-04-03T14:01:25;96120.41;;;0.31;84.85
23339;BME280;11841;49.368;20.962;2023-04-03T14:04:00;96118.47;;;0.33;84.05
23339;BME280;11841;49.368;20.962;2023-04-03T14:06:27;96120.41;;;0.31;83.85
23339;BME280;11841;49.368;20.962;2023-04-03T14:08:53;96134.13;;;0.33;83.72
23339;BME280;11841;49.368;20.962;2023-04-03T14:11:21;96132.50;;;0.32;82.63
23339;BME280;11841;49.368;20.962;2023-04-03T14:13:48;96122.63;;;0.26;82.49
23339;BME280;11841;49.368;20.962;2023-04-03T14:16:20;96120.41;;;0.31;83.63
23339;BME280;11841;49.368;20.962;2023-04-03T14:18:48;96119.84;;;0.37;83.13
23339;BME280;11841;49.368;20.962;2023-04-03T14:21:16;96112.72;;;0.39;82.45
23339;BME280;11841;49.368;20.962;2023-04-03T14:23:43;96104.28;;;0.45;82.30
23339;BME280;11841;49.368;20.962;2023-04-03T14:26:13;96115.41;;;0.47;81.98
23339;BME280;11841;49.368;20.962;2023-04-03T14:28:42;96110.78;;;0.41;79.55
23339;BME280;11841;49.368;20.962;2023-04-03T14:31:13;96119.84;;;0.37;79.43
23339;BME280;11841;49.368;20.962;2023-04-03T14:33:41;96125.78;;;0.29;79.74
23339;BME280;11841;49.368;20.962;2023-04-03T14:36:14;96119.63;;;0.21;79.61
23339;BME280;11841;49.368;20.962;2023-04-03T14:38:42;96117.41;;;0.26;80.36
23339;BME280;11841;49.368;20.962;2023-04-03T14:41:13;96120.31;;;0.23;80.46
23339;BME280;11841;49.368;20.962;2023-04-03T14:43:43;96124.59;;;0.24;80.45
23339;BME280;11841;49.368;20.962;2023-04-03T14:46:14;96134.72;;;0.27;81.17
23339;BME280;11841;49.368;20.962;2023-04-03T14:48:41;96140.94;;;0.16;80.11
23339;BME280;11841;49.368;20.962;2023-04-03T14:51:10;96133.94;;;0.17;80.51
23339;BME280;11841;49.368;20.962;2023-04-03T14:53:37;96127.31;;;0.22;81.17
23339;BME280;11841;49.368;20.962;2023-04-03T14:56:09;96139.25;;;0.25;81.38
23339;BME280;11841;49.368;20.962;2023-04-03T14:58:36;96135.00;;;0.24;80.42
23339;BME280;11841;49.368;20.962;2023-04-03T15:01:03;96136.34;;;0.28;80.13
23339;BME280;11841;49.368;20.962;2023-04-03T15:03:29;96145.16;;;0.27;80.26